createdAt,value
2023-12-31T00:00:54.946Z,2.40
2023-12-31T00:01:54.927Z,2.30
2023-12-31T00:02:54.853Z,2.40
2023-12-31T00:03:54.956Z,2.40
2023-12-31T00:04:54.916Z,2.30
2023-12-31T00:05:54.923Z,2.30
2023-12-31T00:06:54.857Z,2.00
2023-12-31T00:07:54.814Z,2.00
2023-12-31T00:08:54.829Z,2.10
2023-12-31T00:09:54.865Z,1.80
2023-12-31T00:10:54.764Z,1.70
2023-12-31T00:11:54.775Z,2.10
2023-12-31T00:12:54.743Z,1.80
2023-12-31T00:13:54.734Z,1.50
2023-12-31T00:14:54.748Z,1.70
2023-12-31T00:15:54.718Z,1.50
2023-12-31T00:16:54.699Z,1.60
2023-12-31T00:17:54.750Z,1.80
2023-12-31T00:18:54.737Z,2.00
2023-12-31T00:19:54.746Z,1.90
2023-12-31T00:20:54.679Z,1.80
2023-12-31T00:21:54.692Z,1.70
2023-12-31T00:22:54.737Z,1.60
2023-12-31T00:23:54.629Z,1.80
2023-12-31T00:24:54.649Z,1.50
2023-12-31T00:25:54.643Z,1.60
2023-12-31T00:26:54.600Z,1.80
2023-12-31T00:27:54.619Z,1.30
2023-12-31T00:28:54.597Z,1.80
2023-12-31T00:29:54.614Z,1.90
2023-12-31T00:30:54.580Z,1.50
2023-12-31T00:31:54.602Z,1.40
2023-12-31T00:32:54.582Z,1.50
2023-12-31T00:33:54.610Z,1.50
2023-12-31T00:34:54.531Z,1.90
2023-12-31T00:35:54.505Z,1.30
2023-12-31T00:36:54.486Z,1.80
2023-12-31T00:37:54.867Z,1.20
2023-12-31T00:38:54.499Z,2.00
2023-12-31T00:39:54.495Z,1.40
2023-12-31T00:40:54.485Z,1.80
2023-12-31T00:41:54.466Z,1.50
2023-12-31T00:42:54.433Z,1.40
2023-12-31T00:43:54.428Z,1.40
2023-12-31T00:44:54.417Z,1.80
2023-12-31T00:45:54.388Z,1.30
2023-12-31T00:46:54.380Z,1.50
2023-12-31T00:47:54.438Z,1.50
2023-12-31T00:48:54.428Z,1.20
2023-12-31T00:49:54.375Z,1.10
2023-12-31T00:50:54.341Z,1.60
2023-12-31T00:51:54.314Z,1.50
2023-12-31T00:52:54.301Z,1.50
2023-12-31T00:53:54.324Z,1.30
2023-12-31T00:54:54.316Z,1.40
2023-12-31T00:55:54.309Z,1.10
2023-12-31T00:56:54.273Z,1.30
2023-12-31T00:57:54.258Z,1.40
2023-12-31T00:58:54.246Z,1.30
2023-12-31T00:59:54.275Z,1.60
2023-12-31T01:00:54.250Z,1.30
2023-12-31T01:01:54.294Z,1.50
2023-12-31T01:02:54.222Z,1.50
2023-12-31T01:03:54.187Z,1.70
2023-12-31T01:04:54.314Z,1.10
2023-12-31T01:05:54.159Z,1.30
2023-12-31T01:06:54.170Z,1.10
2023-12-31T01:07:54.208Z,1.40
2023-12-31T01:08:54.160Z,1.10
2023-12-31T01:09:54.140Z,1.20
2023-12-31T01:10:54.150Z,1.30
2023-12-31T01:11:54.098Z,1.40
2023-12-31T01:12:54.093Z,1.20
2023-12-31T01:13:54.171Z,1.70
2023-12-31T01:14:54.088Z,1.50
2023-12-31T01:15:54.050Z,1.40
2023-12-31T01:16:54.088Z,1.50
2023-12-31T01:17:54.045Z,1.60
2023-12-31T01:18:54.061Z,2.00
2023-12-31T01:19:54.093Z,1.70
2023-12-31T01:20:54.004Z,1.60
2023-12-31T01:21:53.989Z,1.50
2023-12-31T01:22:53.996Z,1.60
2023-12-31T01:23:53.961Z,1.60
2023-12-31T01:24:53.982Z,1.50
2023-12-31T01:25:53.998Z,1.30
2023-12-31T01:26:53.924Z,1.70
2023-12-31T01:27:53.928Z,1.60
2023-12-31T01:28:53.940Z,1.50
2023-12-31T01:29:53.926Z,1.40
2023-12-31T01:30:53.964Z,1.50
2023-12-31T01:31:53.925Z,1.50
2023-12-31T01:32:53.921Z,1.30
2023-12-31T01:33:53.990Z,1.50
2023-12-31T01:34:53.897Z,1.70
2023-12-31T01:35:53.874Z,1.80
2023-12-31T01:36:53.830Z,1.60
2023-12-31T01:37:53.843Z,1.90
2023-12-31T01:38:53.804Z,1.40
2023-12-31T01:39:53.802Z,1.70
2023-12-31T01:40:53.880Z,1.60
2023-12-31T01:41:53.768Z,1.50
2023-12-31T01:42:53.757Z,1.40
2023-12-31T01:43:53.754Z,1.50
2023-12-31T01:44:53.739Z,1.60
2023-12-31T01:45:53.752Z,1.60
2023-12-31T01:46:53.738Z,1.30
2023-12-31T01:47:53.768Z,1.80
2023-12-31T01:48:53.755Z,2.00
2023-12-31T01:49:53.714Z,1.90
2023-12-31T01:50:53.693Z,1.60
2023-12-31T01:51:53.674Z,1.90
2023-12-31T01:52:53.775Z,1.70
2023-12-31T01:53:53.645Z,1.90
2023-12-31T01:54:53.676Z,1.50
2023-12-31T01:55:53.685Z,1.90
2023-12-31T01:56:53.606Z,1.90
2023-12-31T01:57:53.609Z,1.70
2023-12-31T01:58:53.576Z,1.80
2023-12-31T01:59:53.595Z,1.40
2023-12-31T02:00:53.627Z,1.70
2023-12-31T02:01:56.747Z,1.50
2023-12-31T02:02:53.564Z,1.90
2023-12-31T02:03:53.542Z,1.30
2023-12-31T02:04:53.597Z,1.80
2023-12-31T02:05:53.537Z,1.80
2023-12-31T02:06:53.504Z,1.90
2023-12-31T02:07:53.577Z,1.80
2023-12-31T02:08:53.472Z,1.90
2023-12-31T02:09:53.469Z,1.60
2023-12-31T02:10:53.492Z,1.90
2023-12-31T02:11:53.446Z,1.70
2023-12-31T02:12:53.434Z,1.50
2023-12-31T02:13:53.427Z,1.50
2023-12-31T02:14:53.417Z,1.60
2023-12-31T02:15:53.419Z,1.90
2023-12-31T02:16:53.421Z,2.00
2023-12-31T02:17:53.468Z,2.30
2023-12-31T02:18:53.394Z,1.80
2023-12-31T02:19:53.416Z,1.70
2023-12-31T02:20:53.353Z,1.90
2023-12-31T02:21:53.350Z,2.00
2023-12-31T02:22:53.396Z,1.60
2023-12-31T02:23:53.340Z,1.90
2023-12-31T02:24:53.312Z,2.10
2023-12-31T02:25:53.346Z,1.70
2023-12-31T02:26:53.281Z,2.40
2023-12-31T02:27:53.271Z,2.10
2023-12-31T02:28:53.298Z,1.60
2023-12-31T02:29:53.253Z,2.00
2023-12-31T02:30:53.316Z,2.10
2023-12-31T02:31:53.326Z,1.70
2023-12-31T02:32:53.296Z,1.90
2023-12-31T02:33:53.247Z,1.70
2023-12-31T02:34:53.246Z,1.50
2023-12-31T02:35:53.196Z,2.10
2023-12-31T02:36:53.177Z,2.00
2023-12-31T02:37:53.238Z,1.60
2023-12-31T02:38:53.174Z,2.00
2023-12-31T02:39:53.144Z,1.70
2023-12-31T02:40:53.208Z,2.40
2023-12-31T02:41:53.113Z,1.70
2023-12-31T02:42:53.146Z,1.90
2023-12-31T02:43:53.104Z,1.50
2023-12-31T02:44:53.104Z,1.60
2023-12-31T02:45:53.106Z,1.90
2023-12-31T02:46:59.718Z,1.60
2023-12-31T02:47:53.191Z,1.70
2023-12-31T02:48:53.232Z,1.60
2023-12-31T02:49:53.098Z,1.80
2023-12-31T02:50:53.046Z,1.70
2023-12-31T02:51:53.063Z,1.60
2023-12-31T02:52:53.097Z,1.80
2023-12-31T02:53:53.017Z,1.40
2023-12-31T02:54:53.034Z,1.60
2023-12-31T02:55:53.055Z,1.80
2023-12-31T02:56:52.985Z,1.40
2023-12-31T02:57:52.964Z,1.60
2023-12-31T02:58:53.005Z,1.80
2023-12-31T02:59:52.937Z,1.60
2023-12-31T03:00:52.998Z,1.60
2023-12-31T03:01:53.036Z,1.70
2023-12-31T03:02:52.925Z,1.90
2023-12-31T03:03:52.921Z,1.50
2023-12-31T03:04:53.002Z,1.50
2023-12-31T03:05:52.883Z,1.60
2023-12-31T03:06:52.893Z,2.10
2023-12-31T03:07:52.923Z,2.10
2023-12-31T03:08:52.856Z,2.40
2023-12-31T03:09:52.825Z,2.20
2023-12-31T03:10:52.869Z,2.40
2023-12-31T03:11:52.839Z,1.70
2023-12-31T03:12:52.822Z,2.30
2023-12-31T03:13:52.900Z,2.00
2023-12-31T03:14:52.776Z,1.90
2023-12-31T03:15:52.792Z,2.30
2023-12-31T03:16:52.790Z,2.10
2023-12-31T03:17:52.850Z,1.80
2023-12-31T03:18:52.788Z,2.50
2023-12-31T03:19:52.800Z,1.80
2023-12-31T03:20:52.717Z,2.10
2023-12-31T03:21:52.803Z,2.20
2023-12-31T03:22:52.775Z,1.90
2023-12-31T03:23:52.763Z,1.80
2023-12-31T03:24:52.856Z,2.00
2023-12-31T03:25:52.801Z,1.80
2023-12-31T03:26:52.696Z,2.10
2023-12-31T03:27:52.687Z,2.60
2023-12-31T03:28:52.712Z,1.70
2023-12-31T03:29:52.680Z,1.30
2023-12-31T03:30:52.726Z,1.40
2023-12-31T03:31:52.737Z,1.40
2023-12-31T03:32:52.740Z,1.70
2023-12-31T03:33:52.710Z,1.50
2023-12-31T03:34:52.711Z,1.90
2023-12-31T03:35:52.593Z,1.10
2023-12-31T03:36:52.585Z,1.80
2023-12-31T03:37:52.601Z,1.50
2023-12-31T03:38:52.555Z,1.50
2023-12-31T03:39:52.590Z,1.30
2023-12-31T03:40:52.566Z,1.50
2023-12-31T03:41:52.528Z,1.30
2023-12-31T03:42:52.509Z,1.60
2023-12-31T03:43:52.552Z,1.40
2023-12-31T03:44:52.498Z,1.50
2023-12-31T03:45:52.529Z,1.60
2023-12-31T03:46:52.474Z,1.30
2023-12-31T03:47:52.532Z,2.00
2023-12-31T03:48:52.513Z,1.90
2023-12-31T03:49:52.459Z,1.80
2023-12-31T03:50:52.436Z,1.40
2023-12-31T03:51:52.425Z,1.40
2023-12-31T03:52:52.507Z,1.70
2023-12-31T03:53:52.521Z,1.80
2023-12-31T03:54:52.435Z,1.80
2023-12-31T03:55:52.461Z,1.50
2023-12-31T03:56:52.404Z,1.50
2023-12-31T03:57:52.386Z,1.60
2023-12-31T03:58:52.451Z,1.60
2023-12-31T03:59:52.599Z,1.60
2023-12-31T04:00:52.371Z,1.30
2023-12-31T04:01:52.415Z,1.90
2023-12-31T04:02:52.288Z,1.50
2023-12-31T04:03:52.343Z,1.50
2023-12-31T04:04:52.348Z,1.40
2023-12-31T04:05:52.269Z,2.40
2023-12-31T04:06:52.227Z,1.60
2023-12-31T04:07:52.320Z,1.40
2023-12-31T04:08:52.201Z,2.00
2023-12-31T04:09:52.228Z,1.40
2023-12-31T04:10:52.259Z,1.50
2023-12-31T04:11:52.255Z,1.30
2023-12-31T04:12:52.165Z,1.50
2023-12-31T04:13:52.273Z,1.50
2023-12-31T04:14:52.144Z,1.70
2023-12-31T04:15:52.131Z,1.80
2023-12-31T04:16:52.182Z,1.40
2023-12-31T04:17:52.253Z,1.30
2023-12-31T04:18:52.225Z,2.10
2023-12-31T04:19:52.228Z,1.70
2023-12-31T04:20:52.105Z,1.40
2023-12-31T04:21:52.093Z,1.30
2023-12-31T04:22:52.137Z,1.60
2023-12-31T04:23:52.059Z,1.70
2023-12-31T04:24:52.147Z,1.80
2023-12-31T04:25:52.053Z,1.50
2023-12-31T04:26:52.068Z,1.40
2023-12-31T04:27:52.058Z,1.40
2023-12-31T04:28:52.025Z,1.50
2023-12-31T04:29:51.988Z,1.70
2023-12-31T04:30:52.076Z,1.50
2023-12-31T04:31:54.932Z,1.40
2023-12-31T04:32:52.023Z,1.40
2023-12-31T04:33:52.024Z,1.60
2023-12-31T04:34:52.020Z,1.30
2023-12-31T04:35:52.191Z,1.80
2023-12-31T04:36:51.976Z,1.50
2023-12-31T04:37:51.983Z,1.40
2023-12-31T04:38:51.899Z,1.30
2023-12-31T04:39:51.928Z,1.20
2023-12-31T04:40:51.945Z,1.20
2023-12-31T04:41:51.888Z,1.40
2023-12-31T04:42:51.840Z,1.50
2023-12-31T04:43:51.908Z,1.40
2023-12-31T04:44:51.892Z,1.20
2023-12-31T04:45:51.815Z,1.70
2023-12-31T04:46:51.940Z,1.80
2023-12-31T04:47:51.855Z,1.30
2023-12-31T04:48:51.855Z,1.40
2023-12-31T04:49:51.936Z,1.60
2023-12-31T04:50:51.804Z,1.50
2023-12-31T04:51:51.842Z,1.30
2023-12-31T04:52:51.783Z,1.20
2023-12-31T04:53:51.768Z,1.40
2023-12-31T04:54:51.753Z,1.30
2023-12-31T04:55:51.795Z,1.10
2023-12-31T04:56:51.736Z,1.80
2023-12-31T04:57:51.764Z,1.50
2023-12-31T04:58:51.761Z,1.30
2023-12-31T04:59:51.862Z,1.20
2023-12-31T05:00:51.696Z,1.60
2023-12-31T05:01:51.690Z,1.30
2023-12-31T05:02:51.671Z,1.30
2023-12-31T05:03:51.955Z,1.20
2023-12-31T05:04:51.809Z,1.50
2023-12-31T05:05:51.805Z,1.10
2023-12-31T05:06:51.632Z,1.40
2023-12-31T05:07:51.661Z,1.50
2023-12-31T05:08:51.618Z,1.10
2023-12-31T05:09:51.616Z,1.30
2023-12-31T05:10:51.696Z,1.10
2023-12-31T05:11:51.536Z,1.20
2023-12-31T05:12:51.625Z,1.30
2023-12-31T05:13:51.628Z,1.40
2023-12-31T05:14:51.547Z,1.20
2023-12-31T05:15:51.571Z,1.30
2023-12-31T05:16:51.712Z,1.40
2023-12-31T05:17:51.615Z,1.60
2023-12-31T05:18:51.666Z,1.40
2023-12-31T05:19:51.561Z,1.10
2023-12-31T05:20:51.464Z,1.40
2023-12-31T05:21:51.479Z,1.00
2023-12-31T05:22:51.486Z,1.30
2023-12-31T05:23:51.459Z,1.40
2023-12-31T05:24:51.452Z,1.70
2023-12-31T05:25:51.580Z,1.10
2023-12-31T05:26:51.414Z,1.40
2023-12-31T05:27:51.379Z,1.20
2023-12-31T05:28:51.534Z,1.40
2023-12-31T05:29:51.421Z,1.20
2023-12-31T05:30:51.586Z,1.10
2023-12-31T05:31:51.428Z,1.10
2023-12-31T05:32:51.526Z,1.20
2023-12-31T05:33:51.437Z,1.40
2023-12-31T05:34:51.350Z,1.20
2023-12-31T05:35:51.376Z,1.30
2023-12-31T05:36:51.380Z,1.00
2023-12-31T05:37:51.459Z,1.30
2023-12-31T05:38:51.441Z,1.20
2023-12-31T05:39:51.291Z,1.20
2023-12-31T05:40:51.376Z,1.20
2023-12-31T05:41:51.229Z,1.30
2023-12-31T05:42:51.221Z,1.20
2023-12-31T05:43:51.398Z,1.30
2023-12-31T05:44:51.211Z,1.50
2023-12-31T05:45:51.220Z,2.10
2023-12-31T05:46:51.324Z,3.20
2023-12-31T05:47:51.316Z,4.30
2023-12-31T05:48:51.414Z,4.30
2023-12-31T05:49:51.219Z,3.10
2023-12-31T05:50:51.232Z,2.70
2023-12-31T05:51:51.216Z,2.10
2023-12-31T05:52:51.127Z,1.40
2023-12-31T05:53:51.240Z,2.90
2023-12-31T05:54:51.126Z,3.90
2023-12-31T05:55:51.214Z,2.70
2023-12-31T05:56:51.107Z,1.90
2023-12-31T05:57:51.118Z,1.50
2023-12-31T05:58:51.137Z,1.40
2023-12-31T05:59:51.220Z,1.70
2023-12-31T06:00:51.163Z,1.10
2023-12-31T06:01:51.169Z,1.10
2023-12-31T06:02:51.035Z,1.20
2023-12-31T06:03:51.017Z,1.30
2023-12-31T06:04:51.022Z,1.20
2023-12-31T06:05:51.118Z,1.10
2023-12-31T06:06:50.959Z,1.00
2023-12-31T06:07:51.147Z,1.10
2023-12-31T06:08:50.925Z,1.30
2023-12-31T06:09:51.031Z,1.20
2023-12-31T06:10:51.031Z,1.30
2023-12-31T06:11:51.065Z,1.30
2023-12-31T06:12:50.940Z,1.10
2023-12-31T06:13:50.949Z,1.10
2023-12-31T06:14:50.935Z,1.20
2023-12-31T06:15:50.934Z,1.10
2023-12-31T06:16:51.041Z,1.40
2023-12-31T06:17:50.965Z,1.20
2023-12-31T06:18:50.938Z,1.40
2023-12-31T06:19:50.997Z,1.00
2023-12-31T06:20:50.861Z,1.30
2023-12-31T06:21:50.861Z,1.00
2023-12-31T06:22:50.845Z,1.10
2023-12-31T06:23:50.831Z,1.20
2023-12-31T06:24:50.789Z,1.30
2023-12-31T06:25:50.814Z,1.20
2023-12-31T06:26:50.812Z,1.10
2023-12-31T06:27:50.886Z,1.50
2023-12-31T06:28:50.858Z,1.60
2023-12-31T06:29:50.779Z,1.20
2023-12-31T06:30:51.011Z,1.20
2023-12-31T06:31:50.788Z,1.30
2023-12-31T06:32:50.815Z,1.30
2023-12-31T06:33:50.924Z,1.30
2023-12-31T06:34:50.643Z,1.30
2023-12-31T06:35:50.799Z,1.40
2023-12-31T06:36:50.666Z,1.10
2023-12-31T06:37:50.801Z,1.30
2023-12-31T06:38:50.805Z,1.20
2023-12-31T06:39:50.590Z,1.10
2023-12-31T06:40:50.663Z,1.20
2023-12-31T06:41:50.558Z,1.00
2023-12-31T06:42:50.564Z,1.30
2023-12-31T06:43:50.640Z,1.40
2023-12-31T06:44:50.540Z,1.70
2023-12-31T06:45:50.572Z,1.10
2023-12-31T06:46:50.556Z,1.60
2023-12-31T06:47:50.556Z,1.50
2023-12-31T06:48:50.534Z,1.50
2023-12-31T06:49:50.596Z,1.20
2023-12-31T06:50:50.554Z,1.30
2023-12-31T06:51:50.487Z,1.20
2023-12-31T06:52:50.529Z,1.20
2023-12-31T06:53:50.442Z,1.20
2023-12-31T06:54:50.425Z,1.40
2023-12-31T06:55:50.503Z,1.50
2023-12-31T06:56:50.440Z,1.40
2023-12-31T06:57:50.448Z,1.20
2023-12-31T06:58:50.420Z,1.20
2023-12-31T06:59:50.423Z,1.20
2023-12-31T07:00:50.411Z,1.00
2023-12-31T07:01:50.422Z,1.10
2023-12-31T07:02:50.349Z,1.20
2023-12-31T07:03:50.368Z,1.10
2023-12-31T07:04:50.356Z,1.50
2023-12-31T07:05:50.531Z,1.20
2023-12-31T07:06:50.338Z,1.10
2023-12-31T07:07:50.337Z,1.30
2023-12-31T07:08:50.264Z,1.30
2023-12-31T07:09:50.320Z,1.30
2023-12-31T07:10:50.276Z,1.50
2023-12-31T07:11:50.269Z,1.20
2023-12-31T07:12:50.229Z,1.40
2023-12-31T07:13:50.267Z,1.20
2023-12-31T07:14:50.209Z,1.20
2023-12-31T07:15:50.207Z,1.50
2023-12-31T07:16:50.220Z,1.30
2023-12-31T07:17:50.280Z,1.20
2023-12-31T07:18:50.271Z,1.20
2023-12-31T07:19:50.216Z,1.10
2023-12-31T07:20:50.208Z,1.40
2023-12-31T07:21:50.149Z,1.20
2023-12-31T07:22:50.142Z,1.40
2023-12-31T07:23:50.097Z,1.20
2023-12-31T07:24:50.157Z,1.20
2023-12-31T07:25:50.291Z,1.20
2023-12-31T07:26:50.056Z,1.30
2023-12-31T07:27:50.152Z,1.30
2023-12-31T07:28:50.209Z,1.20
2023-12-31T07:29:50.035Z,0.90
2023-12-31T07:30:50.118Z,1.20
2023-12-31T07:31:50.093Z,1.20
2023-12-31T07:32:50.101Z,1.40
2023-12-31T07:33:50.085Z,1.00
2023-12-31T07:34:50.082Z,1.20
2023-12-31T07:35:50.050Z,1.20
2023-12-31T07:36:50.002Z,1.20
2023-12-31T07:37:49.987Z,1.40
2023-12-31T07:38:49.986Z,1.20
2023-12-31T07:39:49.937Z,1.00
2023-12-31T07:40:50.020Z,1.00
2023-12-31T07:41:49.970Z,1.40
2023-12-31T07:42:49.934Z,1.20
2023-12-31T07:43:49.965Z,1.00
2023-12-31T07:44:49.880Z,1.10
2023-12-31T07:45:49.867Z,1.30
2023-12-31T07:46:50.089Z,1.70
2023-12-31T07:47:49.919Z,1.40
2023-12-31T07:48:49.938Z,1.20
2023-12-31T07:49:49.891Z,1.10
2023-12-31T07:50:49.823Z,1.00
2023-12-31T07:51:49.825Z,1.00
2023-12-31T07:52:49.858Z,1.10
2023-12-31T07:53:49.843Z,1.00
2023-12-31T07:54:49.771Z,1.50
2023-12-31T07:55:49.812Z,1.30
2023-12-31T07:56:49.892Z,1.20
2023-12-31T07:57:49.751Z,1.50
2023-12-31T07:58:49.734Z,1.20
2023-12-31T07:59:49.745Z,0.80
2023-12-31T08:00:49.775Z,1.30
2023-12-31T08:01:49.751Z,1.30
2023-12-31T08:02:49.703Z,1.40
2023-12-31T08:03:49.713Z,1.20
2023-12-31T08:04:49.692Z,1.30
2023-12-31T08:05:49.743Z,1.20
2023-12-31T08:06:49.780Z,1.20
2023-12-31T08:07:49.735Z,1.00
2023-12-31T08:08:49.614Z,1.10
2023-12-31T08:09:49.659Z,1.00
2023-12-31T08:10:49.649Z,1.10
2023-12-31T08:11:49.656Z,1.20
2023-12-31T08:12:49.576Z,1.10
2023-12-31T08:13:49.654Z,1.10
2023-12-31T08:14:49.591Z,1.10
2023-12-31T08:15:49.587Z,1.20
2023-12-31T08:16:49.575Z,1.20
2023-12-31T08:17:49.598Z,1.00
2023-12-31T08:18:49.580Z,1.20
2023-12-31T08:19:49.541Z,1.20
2023-12-31T08:20:49.516Z,1.10
2023-12-31T08:21:49.502Z,1.50
2023-12-31T08:22:49.480Z,1.10
2023-12-31T08:23:49.512Z,1.20
2023-12-31T08:24:49.450Z,1.10
2023-12-31T08:25:49.572Z,1.60
2023-12-31T08:26:49.509Z,1.10
2023-12-31T08:27:49.402Z,1.20
2023-12-31T08:28:49.483Z,1.50
2023-12-31T08:29:49.378Z,1.10
2023-12-31T08:30:49.560Z,1.20
2023-12-31T08:31:49.423Z,1.20
2023-12-31T08:32:49.389Z,1.00
2023-12-31T08:33:49.379Z,1.00
2023-12-31T08:34:49.442Z,1.40
2023-12-31T08:35:49.422Z,1.10
2023-12-31T08:36:49.332Z,1.20
2023-12-31T08:37:49.353Z,1.00
2023-12-31T08:38:49.306Z,0.90
2023-12-31T08:39:49.314Z,1.30
2023-12-31T08:40:49.322Z,1.10
2023-12-31T08:41:49.281Z,1.10
2023-12-31T08:42:49.241Z,1.30
2023-12-31T08:43:49.288Z,1.10
2023-12-31T08:44:57.377Z,1.10
2023-12-31T08:45:49.277Z,1.10
2023-12-31T08:46:49.289Z,1.20
2023-12-31T08:50:17.692Z,1.20
2023-12-31T08:51:19.059Z,1.30
2023-12-31T08:52:18.667Z,1.40
2023-12-31T08:53:19.096Z,1.10
2023-12-31T08:54:18.808Z,1.40
2023-12-31T08:55:18.620Z,1.40
2023-12-31T08:56:19.115Z,1.90
2023-12-31T08:57:18.543Z,1.70
2023-12-31T08:58:19.170Z,3.00
2023-12-31T08:59:19.642Z,1.70
2023-12-31T09:00:19.110Z,1.50
2023-12-31T09:01:18.503Z,1.30
2023-12-31T09:02:18.625Z,1.20
2023-12-31T09:03:18.506Z,1.40
2023-12-31T09:04:20.931Z,1.20
2023-12-31T09:05:18.674Z,1.50
2023-12-31T09:06:18.423Z,1.60
2023-12-31T09:07:18.759Z,1.40
2023-12-31T09:08:19.084Z,1.40
2023-12-31T09:09:18.284Z,1.20
2023-12-31T09:10:18.606Z,1.30
2023-12-31T09:11:18.409Z,1.00
2023-12-31T09:12:18.576Z,1.00
2023-12-31T09:13:18.518Z,1.40
2023-12-31T09:14:18.744Z,1.30
2023-12-31T09:15:18.571Z,1.30
2023-12-31T09:16:18.731Z,1.20
2023-12-31T09:17:18.489Z,1.30
2023-12-31T09:18:18.700Z,1.30
2023-12-31T09:19:18.619Z,1.30
2023-12-31T09:20:19.089Z,1.50
2023-12-31T09:21:18.816Z,1.00
2023-12-31T09:22:18.698Z,1.40
2023-12-31T09:23:19.145Z,1.60
2023-12-31T09:24:19.411Z,1.30
2023-12-31T09:25:18.762Z,1.30
2023-12-31T09:26:18.859Z,1.00
2023-12-31T09:27:18.642Z,1.50
2023-12-31T09:28:18.442Z,1.60
2023-12-31T09:29:18.559Z,1.30
2023-12-31T09:30:18.321Z,1.50
2023-12-31T09:31:18.618Z,1.30
2023-12-31T09:32:18.474Z,1.20
2023-12-31T09:33:18.726Z,1.10
2023-12-31T09:34:20.455Z,1.30
2023-12-31T09:35:18.575Z,1.40
2023-12-31T09:36:18.709Z,1.50
2023-12-31T09:37:18.679Z,1.40
2023-12-31T09:38:18.390Z,1.40
2023-12-31T09:39:18.758Z,1.20
2023-12-31T09:40:19.671Z,1.20
2023-12-31T09:41:18.591Z,1.20
2023-12-31T09:42:18.494Z,1.30
2023-12-31T09:43:20.772Z,2.00
2023-12-31T09:44:21.189Z,1.30
2023-12-31T09:45:18.912Z,1.20
2023-12-31T09:46:18.604Z,1.10
2023-12-31T09:47:18.443Z,1.40
2023-12-31T09:48:18.005Z,1.00
2023-12-31T09:49:18.501Z,1.20
2023-12-31T09:50:17.894Z,1.20
2023-12-31T09:51:23.812Z,1.20
2023-12-31T09:52:18.167Z,1.30
2023-12-31T09:53:18.306Z,1.90
2023-12-31T09:54:19.098Z,1.30
2023-12-31T09:55:18.436Z,1.30
2023-12-31T09:56:18.034Z,1.50
2023-12-31T09:57:18.865Z,1.30
2023-12-31T09:58:18.137Z,1.40
2023-12-31T09:59:19.112Z,1.10
2023-12-31T10:00:18.126Z,1.00
2023-12-31T10:01:18.840Z,1.10
2023-12-31T10:02:18.846Z,1.20
2023-12-31T10:03:17.642Z,1.40
2023-12-31T10:04:17.884Z,1.50
2023-12-31T10:05:18.548Z,1.10
2023-12-31T10:06:18.515Z,1.20
2023-12-31T10:07:17.786Z,1.00
2023-12-31T10:08:20.509Z,1.30
2023-12-31T10:09:17.711Z,1.30
2023-12-31T10:10:17.972Z,1.30
2023-12-31T10:11:18.044Z,1.30
2023-12-31T10:12:18.047Z,1.00
2023-12-31T10:13:18.182Z,1.30
2023-12-31T10:14:19.520Z,1.00
2023-12-31T10:15:17.956Z,1.20
2023-12-31T10:16:19.295Z,1.30
2023-12-31T10:17:18.967Z,1.30
2023-12-31T10:18:18.592Z,1.30
2023-12-31T10:19:18.567Z,1.40
2023-12-31T10:20:19.475Z,1.50
2023-12-31T10:21:18.913Z,1.30
2023-12-31T10:22:18.511Z,1.30
2023-12-31T10:23:17.871Z,1.00
2023-12-31T10:24:17.984Z,1.50
2023-12-31T10:25:17.694Z,1.20
2023-12-31T10:26:18.019Z,1.40
2023-12-31T10:27:18.542Z,1.20
2023-12-31T10:28:17.677Z,1.50
2023-12-31T10:29:20.167Z,1.30
2023-12-31T10:30:18.381Z,1.20
2023-12-31T10:31:17.478Z,1.30
2023-12-31T10:32:28.236Z,1.20
2023-12-31T10:33:19.928Z,1.60
2023-12-31T10:34:18.940Z,1.40
2023-12-31T10:35:17.803Z,1.60
2023-12-31T10:36:16.813Z,1.30
2023-12-31T10:37:17.459Z,1.50
2023-12-31T10:38:17.457Z,1.30
2023-12-31T10:39:18.292Z,1.30
2023-12-31T10:40:17.902Z,1.30
2023-12-31T10:41:17.855Z,1.40
2023-12-31T10:42:17.861Z,1.40
2023-12-31T10:43:20.200Z,1.30
2023-12-31T10:44:18.293Z,1.70
2023-12-31T10:45:18.033Z,1.20
2023-12-31T10:46:17.796Z,1.40
2023-12-31T10:47:17.475Z,1.20
2023-12-31T10:48:17.583Z,1.20
2023-12-31T10:49:20.479Z,1.10
2023-12-31T10:50:18.234Z,1.10
2023-12-31T10:51:20.587Z,1.40
2023-12-31T10:52:17.501Z,1.20
2023-12-31T10:53:18.388Z,1.10
2023-12-31T10:54:17.966Z,1.40
2023-12-31T10:55:18.084Z,1.10
2023-12-31T10:56:17.770Z,1.00
2023-12-31T10:57:18.521Z,1.30
2023-12-31T10:58:17.506Z,1.10
2023-12-31T10:59:17.963Z,1.30
2023-12-31T11:00:17.915Z,1.20
2023-12-31T11:01:18.893Z,1.10
2023-12-31T11:02:18.339Z,1.20
2023-12-31T11:03:18.033Z,1.40
2023-12-31T11:04:17.679Z,1.20
2023-12-31T11:05:17.595Z,1.10
2023-12-31T11:06:18.851Z,1.20
2023-12-31T11:07:17.161Z,1.20
2023-12-31T11:08:20.163Z,1.10
2023-12-31T11:09:18.202Z,1.40
2023-12-31T11:10:17.471Z,1.20
2023-12-31T11:11:17.702Z,1.10
2023-12-31T11:12:18.612Z,1.30
2023-12-31T11:13:17.430Z,1.30
2023-12-31T11:14:17.764Z,0.70
2023-12-31T11:15:17.037Z,1.20
2023-12-31T11:16:16.860Z,0.90
2023-12-31T11:17:24.522Z,1.00
2023-12-31T11:18:17.930Z,1.10
2023-12-31T11:19:17.515Z,0.90
2023-12-31T11:20:16.976Z,1.10
2023-12-31T11:21:17.794Z,0.90
2023-12-31T11:22:17.388Z,1.10
2023-12-31T11:23:17.339Z,1.20
2023-12-31T11:24:17.000Z,1.00
2023-12-31T11:25:17.029Z,1.20
2023-12-31T11:26:17.060Z,1.10
2023-12-31T11:27:17.123Z,1.10
2023-12-31T11:28:17.599Z,1.00
2023-12-31T11:29:16.973Z,1.20
2023-12-31T11:30:16.998Z,1.10
2023-12-31T11:31:17.055Z,1.10
2023-12-31T11:32:16.734Z,1.20
2023-12-31T11:33:17.034Z,1.10
2023-12-31T11:34:17.376Z,1.00
2023-12-31T11:35:16.926Z,1.20
2023-12-31T11:36:16.894Z,1.30
2023-12-31T11:37:16.738Z,1.10
2023-12-31T11:38:17.078Z,1.40
2023-12-31T11:39:16.929Z,1.20
2023-12-31T11:40:16.597Z,1.40
2023-12-31T11:41:17.508Z,1.50
2023-12-31T11:42:16.947Z,1.00
2023-12-31T11:43:17.488Z,1.20
2023-12-31T11:44:16.852Z,1.30
2023-12-31T11:45:16.782Z,1.20
2023-12-31T11:46:16.988Z,1.20
2023-12-31T11:47:17.071Z,1.10
2023-12-31T11:48:19.237Z,1.10
2023-12-31T11:49:16.841Z,1.50
2023-12-31T11:50:17.975Z,1.10
2023-12-31T11:51:17.594Z,1.20
2023-12-31T11:52:16.640Z,1.30
2023-12-31T11:53:16.581Z,1.30
2023-12-31T11:54:16.584Z,1.00
2023-12-31T11:55:16.603Z,1.10
2023-12-31T11:56:17.189Z,1.10
2023-12-31T11:57:17.047Z,1.40
2023-12-31T11:58:17.463Z,1.30
2023-12-31T11:59:16.772Z,1.70
2023-12-31T12:00:16.907Z,1.20
2023-12-31T12:01:16.800Z,0.90
2023-12-31T12:02:16.928Z,1.40
2023-12-31T12:03:16.533Z,1.10
2023-12-31T12:04:17.239Z,1.40
2023-12-31T12:05:17.485Z,1.70
2023-12-31T12:06:16.411Z,1.20
2023-12-31T12:07:17.557Z,1.30
2023-12-31T12:08:27.607Z,1.20
2023-12-31T12:09:17.360Z,1.40
2023-12-31T12:10:18.069Z,0.90
2023-12-31T12:11:17.983Z,1.20
2023-12-31T12:12:22.046Z,1.00
2023-12-31T12:13:17.212Z,0.90
2023-12-31T12:14:25.806Z,1.00
2023-12-31T12:15:21.106Z,1.00
2023-12-31T12:16:17.326Z,1.50
2023-12-31T12:17:29.502Z,1.30
2023-12-31T12:18:26.583Z,1.50
2023-12-31T12:19:18.517Z,1.10
2023-12-31T12:20:21.210Z,1.40
2023-12-31T12:21:17.032Z,1.80
2023-12-31T12:22:16.533Z,2.30
2023-12-31T12:23:17.938Z,1.20
2023-12-31T12:24:20.271Z,1.50
2023-12-31T12:25:18.800Z,1.40
2023-12-31T12:26:16.866Z,1.40
2023-12-31T12:27:22.108Z,1.60
2023-12-31T12:28:16.955Z,1.70
2023-12-31T12:29:19.842Z,1.90
2023-12-31T12:30:18.932Z,1.40
2023-12-31T12:31:16.869Z,1.60
2023-12-31T12:32:18.798Z,1.60
2023-12-31T12:33:21.379Z,1.20
2023-12-31T12:34:19.589Z,1.30
2023-12-31T12:35:19.574Z,1.30
2023-12-31T12:36:18.505Z,1.40
2023-12-31T12:37:22.362Z,1.60
2023-12-31T12:38:29.915Z,1.40
2023-12-31T12:39:20.241Z,1.40
2023-12-31T12:40:21.928Z,1.10
2023-12-31T12:41:18.070Z,1.30
2023-12-31T12:42:18.946Z,1.20
2023-12-31T12:43:16.512Z,1.40
2023-12-31T12:44:16.500Z,1.50
2023-12-31T12:45:20.566Z,1.30
2023-12-31T12:46:27.993Z,1.20
2023-12-31T12:47:19.269Z,1.20
2023-12-31T12:48:17.539Z,1.30
2023-12-31T12:49:18.979Z,1.30
2023-12-31T12:50:19.761Z,1.20
2023-12-31T12:51:17.446Z,1.40
2023-12-31T12:52:16.761Z,1.20
2023-12-31T12:53:23.341Z,1.20
2023-12-31T12:55:04.756Z,1.10
2023-12-31T12:55:34.518Z,1.30
2023-12-31T12:56:17.057Z,1.20
2023-12-31T12:58:49.147Z,1.10
2023-12-31T12:59:02.664Z,1.50
2023-12-31T12:59:58.544Z,1.30
2023-12-31T13:01:01.819Z,1.30
2023-12-31T13:02:12.262Z,1.10
2023-12-31T13:03:02.460Z,1.70
2023-12-31T13:04:03.946Z,1.50
2023-12-31T13:05:08.209Z,1.00
2023-12-31T13:05:57.108Z,1.30
2023-12-31T13:06:57.042Z,1.50
2023-12-31T13:07:57.286Z,1.20
2023-12-31T13:09:01.494Z,1.10
2023-12-31T13:09:55.637Z,1.50
2023-12-31T13:10:56.932Z,1.10
2023-12-31T13:11:56.798Z,1.10
2023-12-31T13:12:57.096Z,1.10
2023-12-31T13:13:59.112Z,1.10
2023-12-31T13:15:00.539Z,1.00
2023-12-31T13:16:06.921Z,1.20
2023-12-31T13:16:58.561Z,1.00
2023-12-31T13:18:02.863Z,1.20
2023-12-31T13:18:56.741Z,1.10
2023-12-31T13:19:56.711Z,1.30
2023-12-31T13:20:57.440Z,1.30
2023-12-31T13:21:56.684Z,1.10